COYOTE (LAKE MENDOCINO) (COY)

Elevation: 720' · RUSSIAN R basin · Operator: US Army Corps of Engineers

Provisional data, subject to change.
Query executed Tuesday at 10:55:01   clock

Select a sensor type for a plot of data.
Note: Reservoir Flows are daily averages.

Earlier

Date RES ELE    STORAGE    RES CHG    TOC STO    ABV TOC    OUTFLOW    INFLOW    PPT INC    TEMP MN    TEMP MX    EVP PAN   
 FEET   AF   AF   AF   AF   CFS   CFS   INCHES   DEG F   DEG F   INCHES  
06/27/2016 747.18 84940 -70 86370 -1430 140 124 0.02 14 37 0.35
06/28/2016 747.12 84836 -104 86370 -1534 144 110 0.00 15 36 0.35
06/29/2016 747.05 84714 -122 86370 -1656 155 112 0.00 13 36 0.34
06/30/2016 746.99 84610 -104 86370 -1760 160 127 0.00 14 39 0.34
07/01/2016 746.91 84470 -140 86370 -1900 159 107 0.02 16 39 0.33
07/02/2016 746.81 84296 -174 86370 -2074 161 92 0.00 16 37 0.33
07/03/2016 746.71 84122 -174 86370 -2248 167 98 0.00 14 35 0.32
07/04/2016 746.63 83983 -139 86370 -2387 168 116 0.00 12 33 0.31
07/05/2016 746.51 83775 -208 86370 -2595 171 84 0.00 11 32 0.31
07/06/2016 746.41 83601 -174 86370 -2769 169 98 0.00 11 31 0.30
07/07/2016 746.30 83410 -191 86370 -2960 167 87 0.00 11 30 0.29
07/08/2016 746.19 83219 -191 86370 -3151 167 86 0.00 12 30 0.26
07/09/2016 746.09 83046 -173 86370 -3324 167 95 0.00 12 26 0.26
07/10/2016 745.99 82872 -174 86370 -3498 176 103 0.00 12 25 0.27
07/11/2016 745.87 82664 -208 86370 -3706 179 91 0.03 9 30 0.29
07/12/2016 745.77 82491 -173 86370 -3879 180 110 0.00 13 29 0.30
07/13/2016 745.64 82265 -226 86370 -4105 189 94 0.04 11 38 0.33
07/14/2016 745.53 82075 -190 86370 -4295 196 120 0.03 14 39 0.35
07/15/2016 745.40 81850 -225 86370 -4520 202 107 0.00 14 39 0.33
07/16/2016 745.24 81573 -277 86370 -4797 208 86 0.00 13 35 0.32
07/17/2016 745.04 81227 -346 86370 -5143 218 60 0.00 12 30 0.29
07/18/2016 744.86 80916 -311 86370 -5454 216 74 0.00 10 27 0.25
07/19/2016 744.69 80622 -294 86370 -5748 217 83 0.00 12 28 0.25
07/20/2016 744.50 80294 -328 86370 -6076 216 67 0.06 9 32 0.30
07/21/2016 744.30 79950 -344 86370 -6420 216 59 0.00 9 30 0.29
07/22/2016 744.11 79622 -328 86370 -6748 216 68 0.00 8 34 0.31
07/23/2016 743.92 79295 -327 86370 -7075 216 69 0.00 13 36 0.32
07/24/2016 743.73 78968 -327 86370 -7402 216 70 0.00 15 38 0.33
07/25/2016 743.58 78710 -258 86370 -7660 216 104 0.00 14 40 0.33
07/26/2016 -- -- -- -- -- -- -- -- -- -- --

Later | Latest

Warning! This data is preliminary and subject to revision.

Show COY Map | Plot COY Data | 1 Month COY Data | Real-Time COY Data | COY Info